Aviation Digital Data Service (ADDS)

Output produced by METARs form (2045 UTC 04 July 2015)
found at http://aviationweather.gov/adds/metars/
 
KPHX 042038Z 0421/0518 25012KT P6SM SCT100 BKN200 
     FM050400 19010KT P6SM VCTS SCT080CB BKN120 OVC150 
     FM050700 08006KT P6SM BKN070 OVC100